Mile Run, Pennsylvania
Current Conditions -  °F | °C
As of 6:25 PM on Monday 22 Dec 2014 (Local Time) from KSEG Reporting Station
Haze Haze  
Wind Chill: 33°   Ceiling: 2100
Heat Index: 33°   Visibility: 3mi
Dew Point: 31°   Wind: 0mph
Humidity: 92%   Direction: NA
Pressure: 30.19"   Gusts: NA
Location:  40.83°N, 76.761°W
Report Text: KSEG 222325Z AUTO 00000KT 3SM UP BR BKN021 BKN035 OVC044 01/M01 A3019 RMK AO2 RAE13UPB22 P0000 T00061006
Loading
Personal Weather Stations






























Interactive Weather Map New forecast layout! Learn more

10-Day Weather Forecast

Advertisements
Track Severe Weather on mobile